createdAt,value
2019-01-17T00:00:33.309Z,7.05
2019-01-17T00:01:33.226Z,7.02
2019-01-17T00:02:33.144Z,7.08
2019-01-17T00:03:33.062Z,7.09
2019-01-17T00:04:32.980Z,7.11
2019-01-17T00:05:32.949Z,7.13
2019-01-17T00:06:32.816Z,7.05
2019-01-17T00:07:32.733Z,7.03
2019-01-17T00:08:32.652Z,7.05
2019-01-17T00:09:32.571Z,7.11
2019-01-17T00:10:32.488Z,7.12
2019-01-17T00:11:32.406Z,7.05
2019-01-17T00:12:32.326Z,7.11
2019-01-17T00:13:32.242Z,7.09
2019-01-17T00:14:32.164Z,7.13
2019-01-17T00:15:32.080Z,7.06
2019-01-17T00:16:32.000Z,7.03
2019-01-17T00:17:31.917Z,7.16
2019-01-17T00:18:31.833Z,7.17
2019-01-17T00:19:31.752Z,7.13
2019-01-17T00:20:31.670Z,7.31
2019-01-17T00:21:31.588Z,7.27
2019-01-17T00:22:31.505Z,7.27
2019-01-17T00:23:31.425Z,7.20
2019-01-17T00:24:31.343Z,7.23
2019-01-17T00:25:31.261Z,7.29
2019-01-17T00:26:31.178Z,7.16
2019-01-17T00:27:31.096Z,7.23
2019-01-17T00:28:31.015Z,7.19
2019-01-17T00:29:30.933Z,7.17
2019-01-17T00:30:30.850Z,7.23
2019-01-17T00:31:30.768Z,7.08
2019-01-17T00:32:30.687Z,7.03
2019-01-17T00:33:30.606Z,7.03
2019-01-17T00:34:30.523Z,7.12
2019-01-17T00:35:30.441Z,7.01
2019-01-17T00:36:30.360Z,7.06
2019-01-17T00:37:30.279Z,7.08
2019-01-17T00:38:30.196Z,7.16
2019-01-17T00:39:30.116Z,7.17
2019-01-17T00:40:30.082Z,7.09
2019-01-17T00:41:29.954Z,6.93
2019-01-17T00:42:29.872Z,7.01
2019-01-17T00:43:29.787Z,6.96
2019-01-17T00:44:29.709Z,6.98
2019-01-17T00:45:29.624Z,7.03
2019-01-17T00:46:29.543Z,7.01
2019-01-17T00:47:29.461Z,7.06
2019-01-17T00:48:29.379Z,6.99
2019-01-17T00:49:29.296Z,7.02
2019-01-17T00:50:29.213Z,6.99
2019-01-17T00:51:29.133Z,7.12
2019-01-17T00:52:29.052Z,7.11
2019-01-17T00:53:28.970Z,7.09
2019-01-17T00:54:28.887Z,7.13
2019-01-17T00:55:28.805Z,7.09
2019-01-17T00:56:28.724Z,7.11
2019-01-17T00:57:28.643Z,7.09
2019-01-17T00:58:28.558Z,6.99
2019-01-17T00:59:28.477Z,6.99
2019-01-17T01:00:28.397Z,7.03
2019-01-17T01:01:28.314Z,7.02
2019-01-17T01:02:28.233Z,7.05
2019-01-17T01:03:28.152Z,7.02
2019-01-17T01:04:28.069Z,7.03
2019-01-17T01:05:27.987Z,7.03
2019-01-17T01:06:27.905Z,7.01
2019-01-17T01:07:27.823Z,7.06
2019-01-17T01:08:27.743Z,7.01
2019-01-17T01:09:27.660Z,6.96
2019-01-17T01:10:27.595Z,6.93
2019-01-17T01:11:27.546Z,6.96
2019-01-17T01:12:27.414Z,6.94
2019-01-17T01:13:27.332Z,7.01
2019-01-17T01:14:27.251Z,6.93
2019-01-17T01:15:27.170Z,6.91
2019-01-17T01:16:27.088Z,6.99
2019-01-17T01:17:27.006Z,6.93
2019-01-17T01:18:26.923Z,7.02
2019-01-17T01:19:26.844Z,6.88
2019-01-17T01:20:26.760Z,6.91
2019-01-17T01:21:26.680Z,6.87
2019-01-17T01:22:26.597Z,6.90
2019-01-17T01:23:26.515Z,6.91
2019-01-17T01:24:26.434Z,7.01
2019-01-17T01:25:26.354Z,6.99
2019-01-17T01:26:26.370Z,7.03
2019-01-17T01:27:26.188Z,7.02
2019-01-17T01:28:26.106Z,7.06
2019-01-17T01:29:26.026Z,7.03
2019-01-17T01:30:25.943Z,7.02
2019-01-17T01:31:25.861Z,6.94
2019-01-17T01:32:25.781Z,6.93
2019-01-17T01:33:25.699Z,6.98
2019-01-17T01:34:25.616Z,6.98
2019-01-17T01:35:25.535Z,7.05
2019-01-17T01:36:25.453Z,7.02
2019-01-17T01:37:25.371Z,7.02
2019-01-17T01:38:25.289Z,6.99
2019-01-17T01:39:25.206Z,7.05
2019-01-17T01:40:25.125Z,7.02
2019-01-17T01:41:25.044Z,6.96
2019-01-17T01:42:25.014Z,6.94
2019-01-17T01:43:24.880Z,6.91
2019-01-17T01:44:24.799Z,6.94
2019-01-17T01:45:24.726Z,6.99
2019-01-17T01:46:24.636Z,6.98
2019-01-17T01:47:24.553Z,6.98
2019-01-17T01:48:24.521Z,6.94
2019-01-17T01:49:24.390Z,6.93
2019-01-17T01:50:24.307Z,6.94
2019-01-17T01:51:24.226Z,6.96
2019-01-17T01:52:24.145Z,6.91
2019-01-17T01:53:24.113Z,6.94
2019-01-17T01:54:23.980Z,6.96
2019-01-17T01:55:23.899Z,6.94
2019-01-17T01:56:23.818Z,6.94
2019-01-17T01:57:23.736Z,6.96
2019-01-17T01:58:23.655Z,7.01
2019-01-17T01:59:23.575Z,6.94
2019-01-17T02:00:23.492Z,7.01
2019-01-17T02:01:23.410Z,6.94
2019-01-17T02:02:23.326Z,6.98
2019-01-17T02:03:23.246Z,7.06
2019-01-17T02:04:23.167Z,7.05
2019-01-17T02:05:23.085Z,7.09
2019-01-17T02:06:23.000Z,7.13
2019-01-17T02:07:22.919Z,7.08
2019-01-17T02:08:22.837Z,7.02
2019-01-17T02:09:22.805Z,7.11
2019-01-17T02:10:22.673Z,7.05
2019-01-17T02:11:22.592Z,6.93
2019-01-17T02:12:22.511Z,6.98
2019-01-17T02:13:22.428Z,6.99
2019-01-17T02:14:22.346Z,7.08
2019-01-17T02:15:22.263Z,7.02
2019-01-17T02:16:22.183Z,7.08
2019-01-17T02:17:22.102Z,6.98
2019-01-17T02:18:22.020Z,7.03
2019-01-17T02:19:21.938Z,7.08
2019-01-17T02:20:21.855Z,7.03
2019-01-17T02:21:21.774Z,7.03
2019-01-17T02:22:21.693Z,6.98
2019-01-17T02:23:21.609Z,6.99
2019-01-17T02:24:21.578Z,7.01
2019-01-17T02:25:21.447Z,7.08
2019-01-17T02:26:21.364Z,7.06
2019-01-17T02:27:21.283Z,6.96
2019-01-17T02:28:21.203Z,6.96
2019-01-17T02:29:21.118Z,6.96
2019-01-17T02:30:21.037Z,6.86
2019-01-17T02:31:20.955Z,6.93
2019-01-17T02:32:20.875Z,6.90
2019-01-17T02:33:20.792Z,6.87
2019-01-17T02:34:20.710Z,6.94
2019-01-17T02:35:20.628Z,6.88
2019-01-17T02:36:20.546Z,6.88
2019-01-17T02:37:20.465Z,6.88
2019-01-17T02:38:20.396Z,6.76
2019-01-17T02:39:20.302Z,6.94
2019-01-17T02:40:20.271Z,6.93
2019-01-17T02:41:20.136Z,6.91
2019-01-17T02:42:20.055Z,6.90
2019-01-17T02:43:19.972Z,6.90
2019-01-17T02:44:19.892Z,6.88
2019-01-17T02:45:19.809Z,6.83
2019-01-17T02:46:19.727Z,6.91
2019-01-17T02:47:19.645Z,6.93
2019-01-17T02:48:19.564Z,7.03
2019-01-17T02:49:19.485Z,7.03
2019-01-17T02:50:19.400Z,7.02
2019-01-17T02:51:19.668Z,7.01
2019-01-17T02:52:19.236Z,7.02
2019-01-17T02:53:19.162Z,6.96
2019-01-17T02:54:19.073Z,7.05
2019-01-17T02:55:18.990Z,6.99
2019-01-17T02:56:18.908Z,6.99
2019-01-17T02:57:18.828Z,7.01
2019-01-17T02:58:18.745Z,7.05
2019-01-17T02:59:18.663Z,6.94
2019-01-17T03:00:18.582Z,7.05
2019-01-17T03:01:18.513Z,6.96
2019-01-17T03:02:18.416Z,6.96
2019-01-17T03:03:18.334Z,7.01
2019-01-17T03:04:18.254Z,6.93
2019-01-17T03:05:18.180Z,6.94
2019-01-17T03:06:18.090Z,6.94
2019-01-17T03:07:18.008Z,6.90
2019-01-17T03:08:17.928Z,6.98
2019-01-17T03:09:17.843Z,6.94
2019-01-17T03:10:17.762Z,6.93
2019-01-17T03:11:17.682Z,6.99
2019-01-17T03:12:17.599Z,6.99
2019-01-17T03:13:17.518Z,6.96
2019-01-17T03:14:17.433Z,6.93
2019-01-17T03:15:17.355Z,6.91
2019-01-17T03:16:17.270Z,6.98
2019-01-17T03:17:17.189Z,7.02
2019-01-17T03:18:17.207Z,6.99
2019-01-17T03:19:17.029Z,6.99
2019-01-17T03:20:16.947Z,6.99
2019-01-17T03:21:16.862Z,7.02
2019-01-17T03:22:16.779Z,6.94
2019-01-17T03:23:16.700Z,6.99
2019-01-17T03:24:16.616Z,7.01
2019-01-17T03:25:16.536Z,7.05
2019-01-17T03:26:16.453Z,7.05
2019-01-17T03:27:16.370Z,7.02
2019-01-17T03:28:16.291Z,7.01
2019-01-17T03:29:16.207Z,6.96
2019-01-17T03:30:16.143Z,6.96
2019-01-17T03:31:16.047Z,6.91
2019-01-17T03:32:15.962Z,6.96
2019-01-17T03:33:15.880Z,7.01
2019-01-17T03:34:15.796Z,7.01
2019-01-17T03:35:15.714Z,6.93
2019-01-17T03:36:15.632Z,6.98
2019-01-17T03:37:15.551Z,6.94
2019-01-17T03:38:15.468Z,6.94
2019-01-17T03:39:15.389Z,6.91
2019-01-17T03:40:15.307Z,6.93
2019-01-17T03:41:15.223Z,6.94
2019-01-17T03:42:15.139Z,6.98
2019-01-17T03:43:15.060Z,6.93
2019-01-17T03:44:14.975Z,6.91
2019-01-17T03:45:14.900Z,6.81
2019-01-17T03:46:14.814Z,6.87
2019-01-17T03:47:14.731Z,6.87
2019-01-17T03:48:14.649Z,6.96
2019-01-17T03:49:14.567Z,6.93
2019-01-17T03:50:14.485Z,6.94
2019-01-17T03:51:14.402Z,6.91
2019-01-17T03:52:14.321Z,6.96
2019-01-17T03:53:14.239Z,6.90
2019-01-17T03:54:14.156Z,6.96
2019-01-17T03:55:14.073Z,6.94
2019-01-17T03:56:13.993Z,6.94
2019-01-17T03:57:13.911Z,6.99
2019-01-17T03:58:13.828Z,6.94
2019-01-17T03:59:13.751Z,6.96
2019-01-17T04:00:13.663Z,6.90
2019-01-17T04:01:13.582Z,6.90
2019-01-17T04:02:13.500Z,6.93
2019-01-17T04:03:13.417Z,6.94
2019-01-17T04:04:13.335Z,6.94
2019-01-17T04:05:13.354Z,6.93
2019-01-17T04:06:13.171Z,6.88
2019-01-17T04:07:13.090Z,6.96
2019-01-17T04:08:13.009Z,6.93
2019-01-17T04:09:12.927Z,6.93
2019-01-17T04:10:12.845Z,6.98
2019-01-17T04:11:12.761Z,6.93
2019-01-17T04:12:12.679Z,6.93
2019-01-17T04:13:12.599Z,6.94
2019-01-17T04:14:12.515Z,7.02
2019-01-17T04:15:12.433Z,6.98
2019-01-17T04:16:12.353Z,7.03
2019-01-17T04:17:12.270Z,7.02
2019-01-17T04:18:12.188Z,6.94
2019-01-17T04:19:12.104Z,6.93
2019-01-17T04:20:12.029Z,6.94
2019-01-17T04:21:11.964Z,6.98
2019-01-17T04:22:11.860Z,6.88
2019-01-17T04:23:11.777Z,6.83
2019-01-17T04:24:11.695Z,6.90
2019-01-17T04:25:11.614Z,6.80
2019-01-17T04:26:11.532Z,6.87
2019-01-17T04:27:11.450Z,6.91
2019-01-17T04:28:11.369Z,6.86
2019-01-17T04:29:11.285Z,6.90
2019-01-17T04:30:11.204Z,6.83
2019-01-17T04:31:11.122Z,6.94
2019-01-17T04:32:11.040Z,6.86
2019-01-17T04:33:10.960Z,6.87
2019-01-17T04:34:10.877Z,6.78
2019-01-17T04:35:10.794Z,6.80
2019-01-17T04:36:10.714Z,6.88
2019-01-17T04:37:10.631Z,6.87
2019-01-17T04:38:10.555Z,6.87
2019-01-17T04:39:10.466Z,6.88
2019-01-17T04:40:10.386Z,6.88
2019-01-17T04:41:10.305Z,6.93
2019-01-17T04:42:10.224Z,6.88
2019-01-17T04:43:10.141Z,6.93
2019-01-17T04:44:10.057Z,6.91
2019-01-17T04:45:09.975Z,6.91
2019-01-17T04:46:09.905Z,6.91
2019-01-17T04:47:09.814Z,6.83
2019-01-17T04:48:09.729Z,6.81
2019-01-17T04:49:09.646Z,6.88
2019-01-17T04:50:09.581Z,6.83
2019-01-17T04:51:09.484Z,6.94
2019-01-17T04:52:09.405Z,6.91
2019-01-17T04:53:09.320Z,6.98
2019-01-17T04:54:09.238Z,6.88
2019-01-17T04:55:09.155Z,6.93
2019-01-17T04:56:09.079Z,6.84
2019-01-17T04:57:08.991Z,6.87
2019-01-17T04:58:08.911Z,6.84
2019-01-17T04:59:08.828Z,6.76
2019-01-17T05:00:08.748Z,6.75
2019-01-17T05:01:08.665Z,6.73
2019-01-17T05:02:08.584Z,6.75
2019-01-17T05:03:08.501Z,6.72
2019-01-17T05:04:08.419Z,6.73
2019-01-17T05:05:08.338Z,6.70
2019-01-17T05:06:08.256Z,6.72
2019-01-17T05:07:08.173Z,6.72
2019-01-17T05:08:08.093Z,6.70
2019-01-17T05:09:08.064Z,6.73
2019-01-17T05:10:07.934Z,6.69
2019-01-17T05:11:07.847Z,6.81
2019-01-17T05:12:07.764Z,6.73
2019-01-17T05:13:07.683Z,6.70
2019-01-17T05:14:07.601Z,6.76
2019-01-17T05:15:07.518Z,6.69
2019-01-17T05:16:07.437Z,6.66
2019-01-17T05:17:07.354Z,6.69
2019-01-17T05:18:07.313Z,6.68
2019-01-17T05:19:07.192Z,6.62
2019-01-17T05:20:07.109Z,6.65
2019-01-17T05:21:07.027Z,6.59
2019-01-17T05:22:06.944Z,6.62
2019-01-17T05:23:06.972Z,6.65
2019-01-17T05:24:06.781Z,6.65
2019-01-17T05:25:12.425Z,6.66
2019-01-17T05:26:06.616Z,6.69
2019-01-17T05:27:06.534Z,6.63
2019-01-17T05:28:06.455Z,6.54
2019-01-17T05:29:06.370Z,6.57
2019-01-17T05:30:06.288Z,6.57
2019-01-17T05:31:06.207Z,6.52
2019-01-17T05:32:06.127Z,6.51
2019-01-17T05:33:06.042Z,6.54
2019-01-17T05:34:05.961Z,6.52
2019-01-17T05:35:05.878Z,6.59
2019-01-17T05:36:05.798Z,6.51
2019-01-17T05:37:05.716Z,6.47
2019-01-17T05:38:05.632Z,6.48
2019-01-17T05:39:05.551Z,6.41
2019-01-17T05:40:05.469Z,6.44
2019-01-17T05:41:05.387Z,6.45
2019-01-17T05:42:05.303Z,6.37
2019-01-17T05:43:05.221Z,6.41
2019-01-17T05:44:05.141Z,6.37
2019-01-17T05:45:05.057Z,6.37
2019-01-17T05:46:04.977Z,6.30
2019-01-17T05:47:04.894Z,6.32
2019-01-17T05:48:04.811Z,6.32
2019-01-17T05:49:04.731Z,6.30
2019-01-17T05:50:04.648Z,6.32
2019-01-17T05:51:04.568Z,6.27
2019-01-17T05:52:04.483Z,6.32
2019-01-17T05:53:04.401Z,6.42
2019-01-17T05:54:04.318Z,6.30
2019-01-17T05:55:04.238Z,6.36
2019-01-17T05:56:04.156Z,6.42
2019-01-17T05:57:04.080Z,6.30
2019-01-17T05:58:03.994Z,6.42
2019-01-17T05:59:03.910Z,6.36
2019-01-17T06:00:03.831Z,6.34
2019-01-17T06:01:03.746Z,6.30
2019-01-17T06:02:03.665Z,6.27
2019-01-17T06:03:03.580Z,6.30
2019-01-17T06:04:03.498Z,6.30
2019-01-17T06:05:03.416Z,6.26
2019-01-17T06:06:03.334Z,6.27
2019-01-17T06:07:03.259Z,6.33
2019-01-17T06:08:03.170Z,6.29
2019-01-17T06:09:03.090Z,6.27
2019-01-17T06:10:03.005Z,6.36
2019-01-17T06:11:02.931Z,6.27
2019-01-17T06:12:02.843Z,6.30
2019-01-17T06:13:02.761Z,6.33
2019-01-17T06:14:02.678Z,6.24
2019-01-17T06:15:02.596Z,6.21
2019-01-17T06:16:02.514Z,6.21
2019-01-17T06:17:02.432Z,6.24
2019-01-17T06:18:02.349Z,6.24
2019-01-17T06:19:02.267Z,6.30
2019-01-17T06:20:02.185Z,6.24
2019-01-17T06:21:02.106Z,6.27
2019-01-17T06:22:02.020Z,6.32
2019-01-17T06:23:01.939Z,6.32
2019-01-17T06:24:01.854Z,6.32
2019-01-17T06:25:01.780Z,6.30
2019-01-17T06:26:01.692Z,6.29
2019-01-17T06:27:01.610Z,6.32
2019-01-17T06:28:01.526Z,6.26
2019-01-17T06:29:01.444Z,6.27
2019-01-17T06:30:01.363Z,6.29
2019-01-17T06:31:01.281Z,6.27
2019-01-17T06:32:01.197Z,6.27
2019-01-17T06:33:01.117Z,6.29
2019-01-17T06:34:01.034Z,6.24
2019-01-17T06:35:00.952Z,6.34
2019-01-17T06:36:00.871Z,6.37
2019-01-17T06:37:00.788Z,6.33
2019-01-17T06:38:00.704Z,6.30
2019-01-17T06:39:00.623Z,6.37
2019-01-17T06:40:00.542Z,6.36
2019-01-17T06:41:00.459Z,6.37
2019-01-17T06:42:00.376Z,6.39
2019-01-17T06:43:00.297Z,6.37
2019-01-17T06:44:00.216Z,6.44
2019-01-17T06:45:00.168Z,6.37
2019-01-17T06:46:00.050Z,6.41
2019-01-17T06:46:59.970Z,6.39
2019-01-17T06:47:59.887Z,6.39
2019-01-17T06:48:59.804Z,6.37
2019-01-17T06:49:59.723Z,6.41
2019-01-17T06:50:59.639Z,6.41
2019-01-17T06:51:59.558Z,6.44
2019-01-17T06:52:59.477Z,6.47
2019-01-17T06:53:59.393Z,6.45
2019-01-17T06:54:59.311Z,6.50
2019-01-17T06:55:59.228Z,6.50
2019-01-17T06:56:59.148Z,6.55
2019-01-17T06:57:59.066Z,6.57
2019-01-17T06:58:58.985Z,6.55
2019-01-17T06:59:58.902Z,6.59
2019-01-17T07:00:58.819Z,6.51
2019-01-17T07:01:58.738Z,6.55
2019-01-17T07:02:58.655Z,6.59
2019-01-17T07:03:58.576Z,6.66
2019-01-17T07:04:58.491Z,6.50
2019-01-17T07:05:58.411Z,6.59
2019-01-17T07:06:58.328Z,6.51
2019-01-17T07:07:58.247Z,6.51
2019-01-17T07:08:58.164Z,6.54
2019-01-17T07:09:58.081Z,6.55
2019-01-17T07:10:58.000Z,6.57
2019-01-17T07:11:57.916Z,6.54
2019-01-17T07:12:57.837Z,6.54
2019-01-17T07:13:57.754Z,6.59
2019-01-17T07:14:57.672Z,6.51
2019-01-17T07:15:57.592Z,6.54
2019-01-17T07:16:57.549Z,6.54
2019-01-17T07:17:57.428Z,6.54
2019-01-17T07:18:57.343Z,6.57
2019-01-17T07:19:57.262Z,6.54
2019-01-17T07:20:57.181Z,6.51
2019-01-17T07:21:57.097Z,6.51
2019-01-17T07:22:57.016Z,6.51
2019-01-17T07:23:56.936Z,6.51
2019-01-17T07:24:56.854Z,6.55
2019-01-17T07:25:56.771Z,6.55
2019-01-17T07:26:56.690Z,6.63
2019-01-17T07:27:56.607Z,6.66
2019-01-17T07:28:56.524Z,6.69
2019-01-17T07:29:56.445Z,6.65
2019-01-17T07:30:56.361Z,6.63
2019-01-17T07:31:56.281Z,6.66
2019-01-17T07:32:56.198Z,6.69
2019-01-17T07:33:56.118Z,6.70
2019-01-17T07:34:56.036Z,6.70
2019-01-17T07:35:55.954Z,6.73
2019-01-17T07:36:55.871Z,6.70
2019-01-17T07:37:55.791Z,6.68
2019-01-17T07:38:55.707Z,6.70
2019-01-17T07:39:55.625Z,6.69
2019-01-17T07:40:55.545Z,6.62
2019-01-17T07:41:55.462Z,6.70
2019-01-17T07:42:55.379Z,6.70
2019-01-17T07:43:55.299Z,6.72
2019-01-17T07:44:55.217Z,6.73
2019-01-17T07:45:55.134Z,6.63
2019-01-17T07:46:55.053Z,6.68
2019-01-17T07:47:54.971Z,6.68
2019-01-17T07:48:54.889Z,6.69
2019-01-17T07:49:54.808Z,6.68
2019-01-17T07:50:54.724Z,6.68
2019-01-17T07:51:54.644Z,6.68
2019-01-17T07:52:54.562Z,6.70
2019-01-17T07:53:54.485Z,6.68
2019-01-17T07:54:54.398Z,6.70
2019-01-17T07:55:54.316Z,6.70
2019-01-17T07:56:54.237Z,6.72
2019-01-17T07:57:54.152Z,6.73
2019-01-17T07:58:54.070Z,6.68
2019-01-17T07:59:53.987Z,6.66
2019-01-17T08:00:53.908Z,6.65
2019-01-17T08:01:53.829Z,6.63
2019-01-17T08:02:53.742Z,6.66
2019-01-17T08:03:53.661Z,6.70
2019-01-17T08:04:53.578Z,6.68
2019-01-17T08:05:53.496Z,6.66
2019-01-17T08:06:56.703Z,6.70
2019-01-17T08:07:53.339Z,6.66
2019-01-17T08:08:53.250Z,6.73
2019-01-17T08:09:53.170Z,6.70
2019-01-17T08:10:53.086Z,6.69
2019-01-17T08:11:53.006Z,6.70
2019-01-17T08:12:52.923Z,6.78
2019-01-17T08:13:52.841Z,6.63
2019-01-17T08:14:52.758Z,6.68
2019-01-17T08:15:52.678Z,6.69
2019-01-17T08:16:52.595Z,6.72
2019-01-17T08:17:52.515Z,6.69
2019-01-17T08:18:52.431Z,6.73
2019-01-17T08:19:52.356Z,6.69
2019-01-17T08:20:52.268Z,6.73
2019-01-17T08:21:52.186Z,6.72
2019-01-17T08:22:52.106Z,6.72
2019-01-17T08:23:52.022Z,6.78
2019-01-17T08:24:51.943Z,6.81
2019-01-17T08:25:54.348Z,6.70
2019-01-17T08:26:51.775Z,6.72
2019-01-17T08:27:51.698Z,6.68
2019-01-17T08:28:51.613Z,6.78
2019-01-17T08:29:51.531Z,6.72
2019-01-17T08:30:51.449Z,6.80
2019-01-17T08:31:51.371Z,6.73
2019-01-17T08:32:51.288Z,6.69
2019-01-17T08:33:51.204Z,6.73
2019-01-17T08:34:51.123Z,6.73
2019-01-17T08:35:51.041Z,6.72
2019-01-17T08:36:50.960Z,6.72
2019-01-17T08:37:50.878Z,6.75
2019-01-17T08:38:50.799Z,6.72
2019-01-17T08:39:50.716Z,6.72
2019-01-17T08:40:50.634Z,6.76
2019-01-17T08:41:50.553Z,6.73
2019-01-17T08:42:50.471Z,6.75
2019-01-17T08:43:50.390Z,6.78
2019-01-17T08:44:50.309Z,6.72
2019-01-17T08:45:50.225Z,6.75
2019-01-17T08:46:50.146Z,6.73
2019-01-17T08:47:50.064Z,6.72
2019-01-17T08:48:49.981Z,6.73
2019-01-17T08:49:49.900Z,6.69
2019-01-17T08:50:49.823Z,6.75
2019-01-17T08:51:49.737Z,6.76
2019-01-17T08:52:49.655Z,6.72
2019-01-17T08:53:49.574Z,6.75
2019-01-17T08:54:49.493Z,6.75
2019-01-17T08:55:49.412Z,6.86
2019-01-17T08:56:49.331Z,6.90
2019-01-17T08:57:49.249Z,6.94
2019-01-17T08:58:49.167Z,6.86
2019-01-17T08:59:49.086Z,6.84
2019-01-17T09:00:49.005Z,6.90
2019-01-17T09:01:48.926Z,6.93
2019-01-17T09:02:48.842Z,6.78
2019-01-17T09:03:48.761Z,6.80
2019-01-17T09:04:48.680Z,6.87
2019-01-17T09:05:48.598Z,6.93
2019-01-17T09:06:48.517Z,6.91
2019-01-17T09:07:48.440Z,6.98
2019-01-17T09:08:48.354Z,7.01
2019-01-17T09:09:48.273Z,6.98
2019-01-17T09:10:48.191Z,6.93
2019-01-17T09:11:48.111Z,6.94
2019-01-17T09:12:48.030Z,6.91
2019-01-17T09:13:47.948Z,6.93
2019-01-17T09:14:47.868Z,6.99
2019-01-17T09:15:47.787Z,6.98
2019-01-17T09:16:47.706Z,6.96
2019-01-17T09:17:47.623Z,6.94
2019-01-17T09:18:47.543Z,6.99
2019-01-17T09:19:47.462Z,6.98
2019-01-17T09:20:47.389Z,7.02
2019-01-17T09:21:47.299Z,7.01
2019-01-17T09:22:47.217Z,7.09
2019-01-17T09:23:47.138Z,7.11
2019-01-17T09:24:47.057Z,7.11
2019-01-17T09:25:46.974Z,7.08
2019-01-17T09:26:46.894Z,7.19
2019-01-17T09:27:46.813Z,7.08
2019-01-17T09:28:46.732Z,7.16
2019-01-17T09:29:46.651Z,7.08
2019-01-17T09:30:46.569Z,7.12
2019-01-17T09:31:46.489Z,7.09
2019-01-17T09:32:46.408Z,7.12
2019-01-17T09:33:46.327Z,7.13
2019-01-17T09:34:46.246Z,7.05
2019-01-17T09:35:46.166Z,7.06
2019-01-17T09:36:46.085Z,7.03
2019-01-17T09:37:46.005Z,7.08
2019-01-17T09:38:45.925Z,6.99
2019-01-17T09:39:45.842Z,7.03
2019-01-17T09:40:45.761Z,7.06
2019-01-17T09:41:46.121Z,7.13
2019-01-17T09:42:45.597Z,7.09
2019-01-17T09:43:45.521Z,7.13
2019-01-17T09:44:45.488Z,7.11
2019-01-17T09:45:45.355Z,7.12
2019-01-17T09:46:45.275Z,7.17
2019-01-17T09:47:45.195Z,7.21
2019-01-17T09:48:45.113Z,7.20
2019-01-17T09:49:45.032Z,7.16
2019-01-17T09:50:44.951Z,7.13
2019-01-17T09:51:44.870Z,7.16
2019-01-17T09:52:44.794Z,7.16
2019-01-17T09:53:44.708Z,7.11
2019-01-17T09:54:44.629Z,7.08
2019-01-17T09:55:44.551Z,7.09
2019-01-17T09:56:44.467Z,7.12
2019-01-17T09:57:44.385Z,7.03
2019-01-17T09:58:44.303Z,7.13
2019-01-17T09:59:44.224Z,7.11
2019-01-17T10:00:44.143Z,7.12
2019-01-17T10:01:44.061Z,7.11
2019-01-17T10:02:43.980Z,7.16
2019-01-17T10:03:43.901Z,7.12
2019-01-17T10:04:43.819Z,7.13
2019-01-17T10:05:43.738Z,7.09
2019-01-17T10:06:43.657Z,7.12
2019-01-17T10:07:43.577Z,7.17
2019-01-17T10:08:43.496Z,7.16
2019-01-17T10:09:43.414Z,7.17
2019-01-17T10:10:43.334Z,7.16
2019-01-17T10:11:43.253Z,7.11
2019-01-17T10:12:43.173Z,7.09
2019-01-17T10:13:43.092Z,7.16
2019-01-17T10:14:43.011Z,7.17
2019-01-17T10:15:42.931Z,7.21
2019-01-17T10:16:45.149Z,7.13
2019-01-17T10:17:42.769Z,7.24
2019-01-17T10:18:42.689Z,7.16
2019-01-17T10:19:42.606Z,7.23
2019-01-17T10:20:42.526Z,7.26
2019-01-17T10:21:42.446Z,7.12
2019-01-17T10:22:42.364Z,7.16
2019-01-17T10:23:42.284Z,7.19
2019-01-17T10:24:42.204Z,7.21
2019-01-17T10:25:42.125Z,7.27
2019-01-17T10:26:42.040Z,7.19
2019-01-17T10:27:41.961Z,7.27
2019-01-17T10:28:41.881Z,7.12
2019-01-17T10:29:41.799Z,7.19
2019-01-17T10:30:41.719Z,7.19
2019-01-17T10:31:41.638Z,7.16
2019-01-17T10:32:41.557Z,7.24
2019-01-17T10:33:41.474Z,7.19
2019-01-17T10:34:41.395Z,7.30
2019-01-17T10:35:41.317Z,7.23
2019-01-17T10:36:41.234Z,7.29
2019-01-17T10:37:41.151Z,7.37
2019-01-17T10:38:41.071Z,7.30
2019-01-17T10:39:40.990Z,7.26
2019-01-17T10:40:40.909Z,7.13
2019-01-17T10:41:40.827Z,7.21
2019-01-17T10:42:40.748Z,7.19
2019-01-17T10:43:40.667Z,7.27
2019-01-17T10:44:40.585Z,7.29
2019-01-17T10:45:40.505Z,7.30
2019-01-17T10:46:40.424Z,7.21
2019-01-17T10:47:40.343Z,7.34
2019-01-17T10:48:40.263Z,7.37
2019-01-17T10:49:40.180Z,7.34
2019-01-17T10:50:40.100Z,7.37
2019-01-17T10:51:40.019Z,7.68
2019-01-17T10:52:39.939Z,7.63
2019-01-17T10:53:39.857Z,7.57
2019-01-17T10:54:39.777Z,7.97
2019-01-17T10:55:39.695Z,8.03
2019-01-17T10:56:41.673Z,8.40
2019-01-17T10:57:39.535Z,8.95
2019-01-17T10:58:39.453Z,9.19
2019-01-17T10:59:39.374Z,8.94
2019-01-17T11:00:39.294Z,8.79
2019-01-17T11:01:39.213Z,8.57
2019-01-17T11:02:39.132Z,8.62
2019-01-17T11:03:39.054Z,8.40
2019-01-17T11:04:38.973Z,8.29
2019-01-17T11:05:38.893Z,8.15
2019-01-17T11:06:38.813Z,8.11
2019-01-17T11:07:38.734Z,7.72
2019-01-17T11:08:38.655Z,7.90
2019-01-17T11:09:38.574Z,8.27
2019-01-17T11:10:38.494Z,8.65
2019-01-17T11:11:38.413Z,8.79
2019-01-17T11:12:38.336Z,8.85
2019-01-17T11:13:38.256Z,8.54
2019-01-17T11:14:38.174Z,8.29
2019-01-17T11:15:38.131Z,8.21
2019-01-17T11:16:38.017Z,7.97
2019-01-17T11:17:37.938Z,7.93
2019-01-17T11:18:37.857Z,7.83
2019-01-17T11:19:37.776Z,7.96
2019-01-17T11:20:37.698Z,7.83
2019-01-17T11:21:37.617Z,7.70
2019-01-17T11:22:37.541Z,7.75
2019-01-17T11:23:37.461Z,7.76
2019-01-17T11:24:37.378Z,7.67
2019-01-17T11:25:37.299Z,7.57
2019-01-17T11:26:37.218Z,7.56
2019-01-17T11:27:37.142Z,7.60
2019-01-17T11:28:37.059Z,7.67
2019-01-17T11:29:36.977Z,7.56
2019-01-17T11:30:36.898Z,7.56
2019-01-17T11:31:36.818Z,7.49
2019-01-17T11:32:36.740Z,7.52
2019-01-17T11:33:36.661Z,7.48
2019-01-17T11:34:36.577Z,7.48
2019-01-17T11:35:36.504Z,7.48
2019-01-17T11:36:36.423Z,7.48
2019-01-17T11:37:36.340Z,7.42
2019-01-17T11:38:36.256Z,7.44
2019-01-17T11:39:36.176Z,7.44
2019-01-17T11:40:36.094Z,7.52
2019-01-17T11:41:36.014Z,7.45
2019-01-17T11:42:35.935Z,7.45
2019-01-17T11:43:35.853Z,7.35
2019-01-17T11:44:35.772Z,7.29
2019-01-17T11:45:35.691Z,7.12
2019-01-17T11:46:35.613Z,7.24
2019-01-17T11:47:35.531Z,7.17
2019-01-17T11:48:35.449Z,7.17
2019-01-17T11:49:35.367Z,7.16
2019-01-17T11:50:35.287Z,7.09
2019-01-17T11:51:35.205Z,7.12
2019-01-17T11:52:35.125Z,7.11
2019-01-17T11:53:35.076Z,7.12
2019-01-17T11:54:34.963Z,7.09
2019-01-17T11:55:34.885Z,7.11
2019-01-17T11:56:40.796Z,7.11
2019-01-17T11:57:34.719Z,7.09
2019-01-17T11:58:34.638Z,7.11
2019-01-17T11:59:34.560Z,7.16
2019-01-17T12:00:34.476Z,7.13
2019-01-17T12:01:34.394Z,7.16
2019-01-17T12:02:39.157Z,7.12
2019-01-17T12:03:34.232Z,7.08
2019-01-17T12:04:34.152Z,7.17
2019-01-17T12:05:34.069Z,7.12
2019-01-17T12:06:33.988Z,7.16
2019-01-17T12:07:33.912Z,7.23
2019-01-17T12:08:33.825Z,7.16
2019-01-17T12:09:33.745Z,7.27
2019-01-17T12:10:33.663Z,7.17
2019-01-17T12:11:33.581Z,7.17
2019-01-17T12:12:33.503Z,7.13
2019-01-17T12:13:33.420Z,7.16
2019-01-17T12:14:33.339Z,7.26
2019-01-17T12:15:33.258Z,7.17
2019-01-17T12:16:33.177Z,7.19
2019-01-17T12:17:33.095Z,7.17
2019-01-17T12:18:33.014Z,7.26
2019-01-17T12:19:32.933Z,7.12
2019-01-17T12:20:32.853Z,7.29
2019-01-17T12:21:32.771Z,7.29
2019-01-17T12:22:32.690Z,7.34
2019-01-17T12:23:32.609Z,7.35
2019-01-17T12:24:32.528Z,7.42
2019-01-17T12:25:32.447Z,7.60
2019-01-17T12:26:32.366Z,7.62
2019-01-17T12:27:32.286Z,7.72
2019-01-17T12:28:32.206Z,7.72
2019-01-17T12:29:32.124Z,7.75
2019-01-17T12:30:32.044Z,7.76
2019-01-17T12:31:31.982Z,7.75
2019-01-17T12:32:31.887Z,7.76
2019-01-17T12:33:31.901Z,7.72
2019-01-17T12:34:31.720Z,7.67
2019-01-17T12:35:31.641Z,7.73
2019-01-17T12:36:31.559Z,7.75
2019-01-17T12:37:31.477Z,7.72
2019-01-17T12:38:31.397Z,7.70
2019-01-17T12:39:31.319Z,7.68
2019-01-17T12:40:31.236Z,7.70
2019-01-17T12:41:31.154Z,7.73
2019-01-17T12:42:31.074Z,7.70
2019-01-17T12:43:30.994Z,7.75
2019-01-17T12:44:30.913Z,7.73
2019-01-17T12:45:30.831Z,7.68
2019-01-17T12:46:30.749Z,7.63
2019-01-17T12:47:30.670Z,7.57
2019-01-17T12:48:30.589Z,7.48
2019-01-17T12:49:30.509Z,7.57
2019-01-17T12:50:31.829Z,7.60
2019-01-17T12:51:30.347Z,7.52
2019-01-17T12:52:30.264Z,7.48
2019-01-17T12:53:30.184Z,7.47
2019-01-17T12:54:30.103Z,7.47
2019-01-17T12:55:30.023Z,7.53
2019-01-17T12:56:29.942Z,7.48
2019-01-17T12:57:29.861Z,7.53
2019-01-17T12:58:29.780Z,7.47
2019-01-17T12:59:29.698Z,7.44
2019-01-17T13:00:29.618Z,7.44
2019-01-17T13:01:29.537Z,7.35
2019-01-17T13:02:29.457Z,7.30
2019-01-17T13:03:29.375Z,7.37
2019-01-17T13:04:29.293Z,7.37
2019-01-17T13:05:29.212Z,7.37
2019-01-17T13:06:29.132Z,7.34
2019-01-17T13:07:29.052Z,7.38
2019-01-17T13:08:28.970Z,7.39
2019-01-17T13:09:28.887Z,7.48
2019-01-17T13:10:28.806Z,7.45
2019-01-17T13:11:28.725Z,7.53
2019-01-17T13:12:28.646Z,7.53
2019-01-17T13:13:28.564Z,7.56
2019-01-17T13:14:28.483Z,7.57
2019-01-17T13:15:28.402Z,7.56
2019-01-17T13:16:28.321Z,7.53
2019-01-17T13:17:28.241Z,7.49